sensor_id;sensor_type;location;lat;lon;timestamp;P1;durP1;ratioP1;P2;durP2;ratioP2
8225;SDS011;4154;48.810;9.012;2023-04-01T00:00:58;0.77;;;0.40;;
8225;SDS011;4154;48.810;9.012;2023-04-01T00:03:25;1.23;;;0.60;;
8225;SDS011;4154;48.810;9.012;2023-04-01T00:05:52;2.10;;;0.73;;
8225;SDS011;4154;48.810;9.012;2023-04-01T00:08:20;0.97;;;0.60;;
8225;SDS011;4154;48.810;9.012;2023-04-01T00:10:46;2.13;;;0.63;;
8225;SDS011;4154;48.810;9.012;2023-04-01T00:13:12;0.60;;;0.60;;
8225;SDS011;4154;48.810;9.012;2023-04-01T00:15:38;1.60;;;0.70;;
8225;SDS011;4154;48.810;9.012;2023-04-01T00:18:04;2.50;;;0.80;;
8225;SDS011;4154;48.810;9.012;2023-04-01T00:20:30;1.13;;;0.80;;
8225;SDS011;4154;48.810;9.012;2023-04-01T00:22:56;1.77;;;0.90;;
8225;SDS011;4154;48.810;9.012;2023-04-01T00:25:22;1.20;;;0.80;;
8225;SDS011;4154;48.810;9.012;2023-04-01T00:27:48;2.10;;;0.93;;
8225;SDS011;4154;48.810;9.012;2023-04-01T00:30:15;1.47;;;0.77;;
8225;SDS011;4154;48.810;9.012;2023-04-01T00:32:40;1.37;;;0.60;;
8225;SDS011;4154;48.810;9.012;2023-04-01T00:35:06;0.90;;;0.60;;
8225;SDS011;4154;48.810;9.012;2023-04-01T00:37:34;1.20;;;0.70;;
8225;SDS011;4154;48.810;9.012;2023-04-01T00:40:03;1.97;;;0.73;;
8225;SDS011;4154;48.810;9.012;2023-04-01T00:42:32;0.60;;;0.50;;
8225;SDS011;4154;48.810;9.012;2023-04-01T00:44:58;1.37;;;0.70;;
8225;SDS011;4154;48.810;9.012;2023-04-01T00:48:46;2.37;;;0.90;;
8225;SDS011;4154;48.810;9.012;2023-04-01T00:50:58;3.13;;;0.90;;
8225;SDS011;4154;48.810;9.012;2023-04-01T00:53:30;1.37;;;0.70;;
8225;SDS011;4154;48.810;9.012;2023-04-01T00:56:05;4.10;;;0.90;;
8225;SDS011;4154;48.810;9.012;2023-04-01T00:58:38;2.00;;;0.80;;
8225;SDS011;4154;48.810;9.012;2023-04-01T01:01:11;2.17;;;0.80;;
8225;SDS011;4154;48.810;9.012;2023-04-01T01:03:37;2.37;;;0.70;;
8225;SDS011;4154;48.810;9.012;2023-04-01T01:06:11;1.03;;;0.90;;
8225;SDS011;4154;48.810;9.012;2023-04-01T01:12:00;2.70;;;0.90;;
8225;SDS011;4154;48.810;9.012;2023-04-01T01:20:46;1.40;;;0.60;;
8225;SDS011;4154;48.810;9.012;2023-04-01T01:29:40;1.73;;;0.93;;
8225;SDS011;4154;48.810;9.012;2023-04-01T01:38:16;1.67;;;0.80;;
8225;SDS011;4154;48.810;9.012;2023-04-01T01:40:48;1.77;;;0.73;;
8225;SDS011;4154;48.810;9.012;2023-04-01T01:43:19;1.57;;;0.80;;
8225;SDS011;4154;48.810;9.012;2023-04-01T01:45:54;2.03;;;0.63;;
8225;SDS011;4154;48.810;9.012;2023-04-01T01:48:24;1.23;;;0.67;;
8225;SDS011;4154;48.810;9.012;2023-04-01T01:50:54;1.60;;;0.60;;
8225;SDS011;4154;48.810;9.012;2023-04-01T01:53:20;1.07;;;0.60;;
8225;SDS011;4154;48.810;9.012;2023-04-01T01:55:46;1.83;;;0.80;;
8225;SDS011;4154;48.810;9.012;2023-04-01T02:00:43;1.20;;;0.60;;
8225;SDS011;4154;48.810;9.012;2023-04-01T02:03:15;1.47;;;0.60;;
8225;SDS011;4154;48.810;9.012;2023-04-01T02:05:46;1.50;;;1.00;;
8225;SDS011;4154;48.810;9.012;2023-04-01T02:08:16;1.50;;;0.47;;
8225;SDS011;4154;48.810;9.012;2023-04-01T02:10:53;0.57;;;0.50;;
8225;SDS011;4154;48.810;9.012;2023-04-01T02:13:27;1.47;;;0.60;;
8225;SDS011;4154;48.810;9.012;2023-04-01T02:16:04;1.43;;;0.60;;
8225;SDS011;4154;48.810;9.012;2023-04-01T02:18:38;2.30;;;0.67;;
8225;SDS011;4154;48.810;9.012;2023-04-01T02:21:08;0.60;;;0.47;;
8225;SDS011;4154;48.810;9.012;2023-04-01T02:23:35;1.73;;;0.63;;
8225;SDS011;4154;48.810;9.012;2023-04-01T02:26:04;2.13;;;0.70;;
8225;SDS011;4154;48.810;9.012;2023-04-01T02:28:33;0.90;;;0.60;;
8225;SDS011;4154;48.810;9.012;2023-04-01T02:31:03;1.10;;;0.37;;
8225;SDS011;4154;48.810;9.012;2023-04-01T02:33:30;0.40;;;0.40;;
8225;SDS011;4154;48.810;9.012;2023-04-01T02:35:57;0.90;;;0.57;;
8225;SDS011;4154;48.810;9.012;2023-04-01T02:38:24;1.10;;;0.40;;
8225;SDS011;4154;48.810;9.012;2023-04-01T02:40:51;1.30;;;0.40;;
8225;SDS011;4154;48.810;9.012;2023-04-01T02:43:23;0.83;;;0.50;;
8225;SDS011;4154;48.810;9.012;2023-04-01T02:45:49;0.77;;;0.53;;
8225;SDS011;4154;48.810;9.012;2023-04-01T02:48:15;1.27;;;0.70;;
8225;SDS011;4154;48.810;9.012;2023-04-01T02:50:41;1.07;;;0.40;;
8225;SDS011;4154;48.810;9.012;2023-04-01T02:53:07;0.63;;;0.50;;
8225;SDS011;4154;48.810;9.012;2023-04-01T02:55:33;1.87;;;0.60;;
8225;SDS011;4154;48.810;9.012;2023-04-01T02:57:59;0.93;;;0.40;;
8225;SDS011;4154;48.810;9.012;2023-04-01T03:00:25;1.13;;;0.40;;
8225;SDS011;4154;48.810;9.012;2023-04-01T03:02:52;1.00;;;0.50;;
8225;SDS011;4154;48.810;9.012;2023-04-01T03:05:18;0.40;;;0.40;;
8225;SDS011;4154;48.810;9.012;2023-04-01T03:07:44;0.53;;;0.30;;
8225;SDS011;4154;48.810;9.012;2023-04-01T03:10:11;0.83;;;0.57;;
8225;SDS011;4154;48.810;9.012;2023-04-01T03:12:38;0.90;;;0.60;;
8225;SDS011;4154;48.810;9.012;2023-04-01T03:15:04;1.53;;;0.80;;
8225;SDS011;4154;48.810;9.012;2023-04-01T03:17:30;1.20;;;0.60;;
8225;SDS011;4154;48.810;9.012;2023-04-01T03:19:56;0.93;;;0.43;;
8225;SDS011;4154;48.810;9.012;2023-04-01T03:22:22;0.40;;;0.40;;
8225;SDS011;4154;48.810;9.012;2023-04-01T03:24:49;0.90;;;0.50;;
8225;SDS011;4154;48.810;9.012;2023-04-01T03:27:15;2.03;;;0.40;;
8225;SDS011;4154;48.810;9.012;2023-04-01T03:29:41;1.27;;;0.40;;
8225;SDS011;4154;48.810;9.012;2023-04-01T03:32:06;1.57;;;0.87;;
8225;SDS011;4154;48.810;9.012;2023-04-01T03:34:32;0.97;;;0.60;;
8225;SDS011;4154;48.810;9.012;2023-04-01T03:36:58;1.80;;;0.33;;
8225;SDS011;4154;48.810;9.012;2023-04-01T03:39:24;1.13;;;0.40;;
8225;SDS011;4154;48.810;9.012;2023-04-01T03:41:50;1.03;;;0.43;;
8225;SDS011;4154;48.810;9.012;2023-04-01T03:44:16;1.27;;;0.40;;
8225;SDS011;4154;48.810;9.012;2023-04-01T03:46:41;1.13;;;0.40;;
8225;SDS011;4154;48.810;9.012;2023-04-01T03:49:08;0.83;;;0.43;;
8225;SDS011;4154;48.810;9.012;2023-04-01T03:51:38;1.97;;;0.40;;
8225;SDS011;4154;48.810;9.012;2023-04-01T03:54:06;1.30;;;0.50;;
8225;SDS011;4154;48.810;9.012;2023-04-01T03:56:32;0.93;;;0.40;;
8225;SDS011;4154;48.810;9.012;2023-04-01T03:58:58;0.67;;;0.40;;
8225;SDS011;4154;48.810;9.012;2023-04-01T04:01:28;0.70;;;0.37;;
8225;SDS011;4154;48.810;9.012;2023-04-01T04:03:54;1.23;;;0.50;;
8225;SDS011;4154;48.810;9.012;2023-04-01T04:06:21;1.57;;;0.50;;
8225;SDS011;4154;48.810;9.012;2023-04-01T04:08:49;1.23;;;0.40;;
8225;SDS011;4154;48.810;9.012;2023-04-01T04:11:15;0.70;;;0.67;;
8225;SDS011;4154;48.810;9.012;2023-04-01T04:13:42;1.67;;;0.60;;
8225;SDS011;4154;48.810;9.012;2023-04-01T04:16:08;1.07;;;0.40;;
8225;SDS011;4154;48.810;9.012;2023-04-01T04:18:34;0.43;;;0.30;;
8225;SDS011;4154;48.810;9.012;2023-04-01T04:21:01;0.63;;;0.40;;
8225;SDS011;4154;48.810;9.012;2023-04-01T04:23:28;1.97;;;0.73;;
8225;SDS011;4154;48.810;9.012;2023-04-01T04:25:59;0.90;;;0.40;;
8225;SDS011;4154;48.810;9.012;2023-04-01T04:28:31;1.17;;;0.50;;
8225;SDS011;4154;48.810;9.012;2023-04-01T04:30:57;0.90;;;0.50;;
8225;SDS011;4154;48.810;9.012;2023-04-01T04:33:24;0.97;;;0.50;;
8225;SDS011;4154;48.810;9.012;2023-04-01T04:35:51;1.20;;;0.60;;
8225;SDS011;4154;48.810;9.012;2023-04-01T04:38:19;1.50;;;0.67;;
8225;SDS011;4154;48.810;9.012;2023-04-01T04:40:45;0.83;;;0.50;;
8225;SDS011;4154;48.810;9.012;2023-04-01T04:43:12;1.50;;;0.40;;
8225;SDS011;4154;48.810;9.012;2023-04-01T04:45:40;1.23;;;0.43;;
8225;SDS011;4154;48.810;9.012;2023-04-01T04:48:07;1.67;;;0.60;;
8225;SDS011;4154;48.810;9.012;2023-04-01T04:50:34;0.87;;;0.43;;
8225;SDS011;4154;48.810;9.012;2023-04-01T04:53:00;1.37;;;0.50;;
8225;SDS011;4154;48.810;9.012;2023-04-01T04:55:27;1.43;;;0.67;;
8225;SDS011;4154;48.810;9.012;2023-04-01T04:57:53;1.63;;;0.63;;
8225;SDS011;4154;48.810;9.012;2023-04-01T05:00:19;1.43;;;0.60;;
8225;SDS011;4154;48.810;9.012;2023-04-01T05:02:45;1.60;;;0.70;;
8225;SDS011;4154;48.810;9.012;2023-04-01T05:05:10;1.77;;;0.70;;
8225;SDS011;4154;48.810;9.012;2023-04-01T05:07:36;0.70;;;0.30;;
8225;SDS011;4154;48.810;9.012;2023-04-01T05:10:02;1.53;;;0.60;;
8225;SDS011;4154;48.810;9.012;2023-04-01T05:12:29;2.70;;;0.80;;
8225;SDS011;4154;48.810;9.012;2023-04-01T05:14:55;0.90;;;0.60;;
8225;SDS011;4154;48.810;9.012;2023-04-01T05:17:21;1.40;;;0.93;;
8225;SDS011;4154;48.810;9.012;2023-04-01T05:19:47;1.37;;;0.77;;
8225;SDS011;4154;48.810;9.012;2023-04-01T05:22:12;1.23;;;0.60;;
8225;SDS011;4154;48.810;9.012;2023-04-01T05:24:39;2.07;;;0.80;;
8225;SDS011;4154;48.810;9.012;2023-04-01T05:27:04;3.17;;;0.77;;
8225;SDS011;4154;48.810;9.012;2023-04-01T05:29:30;1.77;;;0.70;;
8225;SDS011;4154;48.810;9.012;2023-04-01T05:31:56;1.50;;;0.50;;
8225;SDS011;4154;48.810;9.012;2023-04-01T05:34:22;1.67;;;0.90;;
8225;SDS011;4154;48.810;9.012;2023-04-01T05:36:48;1.47;;;0.70;;
8225;SDS011;4154;48.810;9.012;2023-04-01T05:39:13;2.30;;;1.17;;
8225;SDS011;4154;48.810;9.012;2023-04-01T05:41:39;2.17;;;0.57;;
8225;SDS011;4154;48.810;9.012;2023-04-01T05:44:05;1.00;;;0.70;;
8225;SDS011;4154;48.810;9.012;2023-04-01T05:46:31;2.53;;;0.93;;
8225;SDS011;4154;48.810;9.012;2023-04-01T05:48:57;2.53;;;0.73;;
8225;SDS011;4154;48.810;9.012;2023-04-01T05:51:23;2.13;;;0.60;;
8225;SDS011;4154;48.810;9.012;2023-04-01T05:53:49;2.10;;;0.80;;
8225;SDS011;4154;48.810;9.012;2023-04-01T05:56:14;1.63;;;0.50;;
8225;SDS011;4154;48.810;9.012;2023-04-01T05:58:40;2.53;;;0.73;;
8225;SDS011;4154;48.810;9.012;2023-04-01T06:01:07;1.53;;;0.60;;
8225;SDS011;4154;48.810;9.012;2023-04-01T06:03:35;0.63;;;0.63;;
8225;SDS011;4154;48.810;9.012;2023-04-01T06:06:02;1.93;;;0.80;;
8225;SDS011;4154;48.810;9.012;2023-04-01T06:08:29;0.83;;;0.33;;
8225;SDS011;4154;48.810;9.012;2023-04-01T06:16:04;1.13;;;0.50;;
8225;SDS011;4154;48.810;9.012;2023-04-01T06:19:10;1.13;;;0.67;;
8225;SDS011;4154;48.810;9.012;2023-04-01T06:49:35;2.30;;;0.50;;
8225;SDS011;4154;48.810;9.012;2023-04-01T06:55:16;0.80;;;0.60;;
8225;SDS011;4154;48.810;9.012;2023-04-01T06:57:52;0.87;;;0.50;;
8225;SDS011;4154;48.810;9.012;2023-04-01T07:03:02;2.50;;;1.00;;
8225;SDS011;4154;48.810;9.012;2023-04-01T07:05:41;1.60;;;0.83;;
8225;SDS011;4154;48.810;9.012;2023-04-01T07:08:10;1.60;;;0.50;;
8225;SDS011;4154;48.810;9.012;2023-04-01T07:10:44;1.00;;;0.50;;
8225;SDS011;4154;48.810;9.012;2023-04-01T07:16:36;1.27;;;0.60;;
8225;SDS011;4154;48.810;9.012;2023-04-01T07:19:17;1.70;;;0.60;;
8225;SDS011;4154;48.810;9.012;2023-04-01T07:21:59;0.73;;;0.60;;
8225;SDS011;4154;48.810;9.012;2023-04-01T07:24:32;0.40;;;0.40;;
8225;SDS011;4154;48.810;9.012;2023-04-01T07:27:02;1.00;;;0.70;;
8225;SDS011;4154;48.810;9.012;2023-04-01T07:29:33;0.53;;;0.50;;
8225;SDS011;4154;48.810;9.012;2023-04-01T07:52:02;0.83;;;0.37;;
8225;SDS011;4154;48.810;9.012;2023-04-01T07:54:42;2.00;;;0.60;;
8225;SDS011;4154;48.810;9.012;2023-04-01T07:58:02;1.00;;;0.60;;
8225;SDS011;4154;48.810;9.012;2023-04-01T08:00:47;2.23;;;0.90;;
8225;SDS011;4154;48.810;9.012;2023-04-01T08:06:59;1.17;;;0.47;;
8225;SDS011;4154;48.810;9.012;2023-04-01T08:15:35;0.47;;;0.47;;
8225;SDS011;4154;48.810;9.012;2023-04-01T08:18:41;1.07;;;0.70;;
8225;SDS011;4154;48.810;9.012;2023-04-01T08:21:31;1.17;;;0.50;;
8225;SDS011;4154;48.810;9.012;2023-04-01T08:24:10;1.60;;;0.60;;
8225;SDS011;4154;48.810;9.012;2023-04-01T08:27:03;2.30;;;0.60;;
8225;SDS011;4154;48.810;9.012;2023-04-01T08:30:16;1.43;;;0.60;;
8225;SDS011;4154;48.810;9.012;2023-04-01T08:32:42;1.50;;;0.60;;
8225;SDS011;4154;48.810;9.012;2023-04-01T08:37:56;1.43;;;0.70;;
8225;SDS011;4154;48.810;9.012;2023-04-01T08:40:50;0.53;;;0.43;;
8225;SDS011;4154;48.810;9.012;2023-04-01T08:55:51;0.93;;;0.47;;
8225;SDS011;4154;48.810;9.012;2023-04-01T09:08:52;1.97;;;0.80;;
8225;SDS011;4154;48.810;9.012;2023-04-01T09:15:00;1.43;;;0.50;;
8225;SDS011;4154;48.810;9.012;2023-04-01T09:18:09;0.50;;;0.50;;
8225;SDS011;4154;48.810;9.012;2023-04-01T09:21:08;1.63;;;0.70;;
8225;SDS011;4154;48.810;9.012;2023-04-01T09:26:53;0.40;;;0.40;;
8225;SDS011;4154;48.810;9.012;2023-04-01T09:32:37;1.13;;;0.40;;
8225;SDS011;4154;48.810;9.012;2023-04-01T09:38:11;0.50;;;0.30;;
8225;SDS011;4154;48.810;9.012;2023-04-01T10:08:15;0.20;;;0.20;;
8225;SDS011;4154;48.810;9.012;2023-04-01T10:13:29;0.50;;;0.30;;
8225;SDS011;4154;48.810;9.012;2023-04-01T10:22:54;0.93;;;0.10;;
8225;SDS011;4154;48.810;9.012;2023-04-01T10:35:07;0.10;;;0.10;;
8225;SDS011;4154;48.810;9.012;2023-04-01T10:41:14;0.20;;;0.20;;
8225;SDS011;4154;48.810;9.012;2023-04-01T10:44:22;0.20;;;0.20;;
8225;SDS011;4154;48.810;9.012;2023-04-01T10:59:04;0.20;;;0.20;;
8225;SDS011;4154;48.810;9.012;2023-04-01T11:04:50;0.20;;;0.20;;
8225;SDS011;4154;48.810;9.012;2023-04-01T11:22:59;0.10;;;0.10;;
8225;SDS011;4154;48.810;9.012;2023-04-01T11:28:54;0.80;;;0.33;;
8225;SDS011;4154;48.810;9.012;2023-04-01T11:44:18;2.53;;;0.23;;
8225;SDS011;4154;48.810;9.012;2023-04-01T11:47:00;1.50;;;0.20;;
8225;SDS011;4154;48.810;9.012;2023-04-01T12:04:46;0.30;;;0.10;;
8225;SDS011;4154;48.810;9.012;2023-04-01T12:07:44;0.20;;;0.20;;
8225;SDS011;4154;48.810;9.012;2023-04-01T12:13:59;0.20;;;0.20;;
8225;SDS011;4154;48.810;9.012;2023-04-01T12:19:39;0.10;;;0.10;;
8225;SDS011;4154;48.810;9.012;2023-04-01T12:22:54;0.20;;;0.20;;
8225;SDS011;4154;48.810;9.012;2023-04-01T12:28:41;0.10;;;0.10;;
8225;SDS011;4154;48.810;9.012;2023-04-01T12:34:48;0.70;;;0.10;;
8225;SDS011;4154;48.810;9.012;2023-04-01T12:40:57;0.20;;;0.20;;
8225;SDS011;4154;48.810;9.012;2023-04-01T12:52:39;0.10;;;0.10;;
8225;SDS011;4154;48.810;9.012;2023-04-01T12:55:35;0.13;;;0.13;;
8225;SDS011;4154;48.810;9.012;2023-04-01T13:01:25;0.67;;;0.13;;
8225;SDS011;4154;48.810;9.012;2023-04-01T13:04:25;0.10;;;0.10;;
8225;SDS011;4154;48.810;9.012;2023-04-01T13:10:38;0.43;;;0.40;;
8225;SDS011;4154;48.810;9.012;2023-04-01T13:16:26;0.97;;;0.40;;
8225;SDS011;4154;48.810;9.012;2023-04-01T13:19:03;0.70;;;0.50;;
8225;SDS011;4154;48.810;9.012;2023-04-01T13:24:37;0.60;;;0.60;;
8225;SDS011;4154;48.810;9.012;2023-04-01T13:27:30;0.37;;;0.37;;
8225;SDS011;4154;48.810;9.012;2023-04-01T13:33:15;0.20;;;0.20;;
8225;SDS011;4154;48.810;9.012;2023-04-01T13:38:47;0.27;;;0.27;;
8225;SDS011;4154;48.810;9.012;2023-04-01T13:44:47;0.33;;;0.33;;
8225;SDS011;4154;48.810;9.012;2023-04-01T13:51:06;0.20;;;0.20;;
8225;SDS011;4154;48.810;9.012;2023-04-01T13:54:12;0.23;;;0.10;;
8225;SDS011;4154;48.810;9.012;2023-04-01T14:00:29;0.10;;;0.10;;
8225;SDS011;4154;48.810;9.012;2023-04-01T14:03:26;0.10;;;0.10;;
8225;SDS011;4154;48.810;9.012;2023-04-01T14:05:59;0.30;;;0.30;;
8225;SDS011;4154;48.810;9.012;2023-04-01T14:20:31;0.20;;;0.20;;
8225;SDS011;4154;48.810;9.012;2023-04-01T14:23:27;0.10;;;0.10;;
8225;SDS011;4154;48.810;9.012;2023-04-01T14:38:54;0.23;;;0.10;;
8225;SDS011;4154;48.810;9.012;2023-04-01T14:41:43;0.50;;;0.20;;
8225;SDS011;4154;48.810;9.012;2023-04-01T14:44:27;0.23;;;0.20;;
8225;SDS011;4154;48.810;9.012;2023-04-01T14:50:24;0.20;;;0.20;;
8225;SDS011;4154;48.810;9.012;2023-04-01T14:55:56;0.30;;;0.30;;
8225;SDS011;4154;48.810;9.012;2023-04-01T14:58:41;0.30;;;0.30;;
8225;SDS011;4154;48.810;9.012;2023-04-01T15:04:30;1.00;;;0.90;;
8225;SDS011;4154;48.810;9.012;2023-04-01T15:07:35;0.87;;;0.70;;
8225;SDS011;4154;48.810;9.012;2023-04-01T15:10:35;1.17;;;1.07;;
8225;SDS011;4154;48.810;9.012;2023-04-01T15:21:55;0.70;;;0.70;;
8225;SDS011;4154;48.810;9.012;2023-04-01T15:31:19;0.43;;;0.43;;
8225;SDS011;4154;48.810;9.012;2023-04-01T15:36:53;0.50;;;0.50;;
8225;SDS011;4154;48.810;9.012;2023-04-01T15:39:38;0.20;;;0.20;;
8225;SDS011;4154;48.810;9.012;2023-04-01T15:47:40;0.30;;;0.30;;
8225;SDS011;4154;48.810;9.012;2023-04-01T15:53:23;0.30;;;0.30;;
8225;SDS011;4154;48.810;9.012;2023-04-01T16:02:12;0.50;;;0.50;;
8225;SDS011;4154;48.810;9.012;2023-04-01T16:04:54;0.47;;;0.37;;
8225;SDS011;4154;48.810;9.012;2023-04-01T16:08:01;0.47;;;0.47;;
8225;SDS011;4154;48.810;9.012;2023-04-01T16:10:51;0.37;;;0.37;;
8225;SDS011;4154;48.810;9.012;2023-04-01T16:13:42;0.50;;;0.30;;
8225;SDS011;4154;48.810;9.012;2023-04-01T16:16:53;0.60;;;0.57;;
8225;SDS011;4154;48.810;9.012;2023-04-01T16:20:06;0.50;;;0.50;;
8225;SDS011;4154;48.810;9.012;2023-04-01T16:22:46;0.67;;;0.67;;
8225;SDS011;4154;48.810;9.012;2023-04-01T16:25:32;0.97;;;0.40;;
8225;SDS011;4154;48.810;9.012;2023-04-01T16:28:49;0.70;;;0.70;;
8225;SDS011;4154;48.810;9.012;2023-04-01T16:32:05;0.53;;;0.50;;
8225;SDS011;4154;48.810;9.012;2023-04-01T16:34:46;0.40;;;0.40;;
8225;SDS011;4154;48.810;9.012;2023-04-01T16:37:43;0.97;;;0.70;;
8225;SDS011;4154;48.810;9.012;2023-04-01T16:48:22;0.60;;;0.60;;
8225;SDS011;4154;48.810;9.012;2023-04-01T16:51:17;1.43;;;1.23;;
8225;SDS011;4154;48.810;9.012;2023-04-01T16:53:48;0.80;;;0.80;;
8225;SDS011;4154;48.810;9.012;2023-04-01T16:56:36;2.10;;;1.90;;
8225;SDS011;4154;48.810;9.012;2023-04-01T16:59:18;1.30;;;1.20;;
8225;SDS011;4154;48.810;9.012;2023-04-01T17:02:16;0.93;;;0.93;;
8225;SDS011;4154;48.810;9.012;2023-04-01T17:04:58;0.93;;;0.93;;
8225;SDS011;4154;48.810;9.012;2023-04-01T17:07:35;0.90;;;0.90;;
8225;SDS011;4154;48.810;9.012;2023-04-01T17:13:40;2.20;;;1.10;;
8225;SDS011;4154;48.810;9.012;2023-04-01T17:20:05;1.23;;;0.83;;
8225;SDS011;4154;48.810;9.012;2023-04-01T17:22:59;1.83;;;1.10;;
8225;SDS011;4154;48.810;9.012;2023-04-01T17:26:04;1.67;;;1.00;;
8225;SDS011;4154;48.810;9.012;2023-04-01T17:28:47;1.00;;;0.90;;
8225;SDS011;4154;48.810;9.012;2023-04-01T17:40:00;1.10;;;0.90;;
8225;SDS011;4154;48.810;9.012;2023-04-01T17:45:55;1.30;;;1.20;;
8225;SDS011;4154;48.810;9.012;2023-04-01T17:49:18;1.00;;;0.90;;
8225;SDS011;4154;48.810;9.012;2023-04-01T17:52:25;1.00;;;0.97;;
8225;SDS011;4154;48.810;9.012;2023-04-01T17:58:44;1.13;;;0.90;;
8225;SDS011;4154;48.810;9.012;2023-04-01T18:01:31;1.23;;;0.70;;
8225;SDS011;4154;48.810;9.012;2023-04-01T18:07:57;1.47;;;1.00;;
8225;SDS011;4154;48.810;9.012;2023-04-01T18:11:09;1.33;;;1.20;;
8225;SDS011;4154;48.810;9.012;2023-04-01T18:17:06;1.70;;;1.30;;
8225;SDS011;4154;48.810;9.012;2023-04-01T18:19:51;1.43;;;1.33;;
8225;SDS011;4154;48.810;9.012;2023-04-01T18:22:59;1.40;;;1.30;;
8225;SDS011;4154;48.810;9.012;2023-04-01T18:25:46;1.73;;;1.30;;
8225;SDS011;4154;48.810;9.012;2023-04-01T18:28:19;1.00;;;0.80;;
8225;SDS011;4154;48.810;9.012;2023-04-01T18:33:34;1.00;;;0.90;;
8225;SDS011;4154;48.810;9.012;2023-04-01T18:36:33;1.60;;;1.23;;
8225;SDS011;4154;48.810;9.012;2023-04-01T18:39:41;1.10;;;1.00;;
8225;SDS011;4154;48.810;9.012;2023-04-01T18:42:27;1.20;;;0.97;;
8225;SDS011;4154;48.810;9.012;2023-04-01T18:45:34;1.03;;;0.97;;
8225;SDS011;4154;48.810;9.012;2023-04-01T18:48:51;1.40;;;1.30;;
8225;SDS011;4154;48.810;9.012;2023-04-01T18:51:22;1.30;;;1.20;;
8225;SDS011;4154;48.810;9.012;2023-04-01T18:54:00;1.37;;;1.17;;
8225;SDS011;4154;48.810;9.012;2023-04-01T18:56:38;1.50;;;1.30;;
8225;SDS011;4154;48.810;9.012;2023-04-01T19:02:44;0.90;;;0.90;;
8225;SDS011;4154;48.810;9.012;2023-04-01T19:05:34;1.00;;;0.90;;
8225;SDS011;4154;48.810;9.012;2023-04-01T19:08:26;0.80;;;0.80;;
8225;SDS011;4154;48.810;9.012;2023-04-01T19:10:59;1.30;;;1.00;;
8225;SDS011;4154;48.810;9.012;2023-04-01T19:22:44;1.40;;;1.30;;
8225;SDS011;4154;48.810;9.012;2023-04-01T19:34:11;1.50;;;1.10;;
8225;SDS011;4154;48.810;9.012;2023-04-01T19:43:01;2.23;;;1.30;;
8225;SDS011;4154;48.810;9.012;2023-04-01T19:50:42;1.30;;;1.20;;
8225;SDS011;4154;48.810;9.012;2023-04-01T19:56:23;1.90;;;1.00;;
8225;SDS011;4154;48.810;9.012;2023-04-01T19:59:21;1.50;;;1.00;;
8225;SDS011;4154;48.810;9.012;2023-04-01T20:05:26;3.17;;;1.57;;
8225;SDS011;4154;48.810;9.012;2023-04-01T20:13:20;1.47;;;1.10;;
8225;SDS011;4154;48.810;9.012;2023-04-01T20:16:11;1.90;;;1.07;;
8225;SDS011;4154;48.810;9.012;2023-04-01T20:18:50;0.83;;;0.83;;
8225;SDS011;4154;48.810;9.012;2023-04-01T20:21:34;2.30;;;0.97;;
8225;SDS011;4154;48.810;9.012;2023-04-01T20:24:14;1.20;;;0.80;;
8225;SDS011;4154;48.810;9.012;2023-04-01T20:27:03;1.87;;;0.80;;
8225;SDS011;4154;48.810;9.012;2023-04-01T20:33:10;1.37;;;0.83;;
8225;SDS011;4154;48.810;9.012;2023-04-01T20:36:05;0.73;;;0.73;;
8225;SDS011;4154;48.810;9.012;2023-04-01T20:41:45;0.70;;;0.70;;
8225;SDS011;4154;48.810;9.012;2023-04-01T20:49:49;0.87;;;0.87;;
8225;SDS011;4154;48.810;9.012;2023-04-01T20:52:41;1.17;;;1.00;;
8225;SDS011;4154;48.810;9.012;2023-04-01T20:55:35;0.70;;;0.70;;
8225;SDS011;4154;48.810;9.012;2023-04-01T20:58:28;1.20;;;0.90;;
8225;SDS011;4154;48.810;9.012;2023-04-01T21:01:25;1.10;;;0.70;;
8225;SDS011;4154;48.810;9.012;2023-04-01T21:04:17;1.07;;;0.60;;
8225;SDS011;4154;48.810;9.012;2023-04-01T21:07:16;0.70;;;0.70;;
8225;SDS011;4154;48.810;9.012;2023-04-01T21:18:58;0.77;;;0.70;;
8225;SDS011;4154;48.810;9.012;2023-04-01T21:24:59;0.97;;;0.73;;
8225;SDS011;4154;48.810;9.012;2023-04-01T21:28:29;0.60;;;0.60;;
8225;SDS011;4154;48.810;9.012;2023-04-01T21:34:04;1.30;;;0.87;;
8225;SDS011;4154;48.810;9.012;2023-04-01T21:49:22;0.87;;;0.60;;
8225;SDS011;4154;48.810;9.012;2023-04-01T21:52:18;1.70;;;0.80;;
8225;SDS011;4154;48.810;9.012;2023-04-01T21:55:19;1.23;;;0.90;;
8225;SDS011;4154;48.810;9.012;2023-04-01T22:04:31;0.80;;;0.80;;
8225;SDS011;4154;48.810;9.012;2023-04-01T22:07:17;0.80;;;0.80;;
8225;SDS011;4154;48.810;9.012;2023-04-01T22:09:56;1.10;;;1.00;;
8225;SDS011;4154;48.810;9.012;2023-04-01T22:21:00;1.03;;;0.80;;
8225;SDS011;4154;48.810;9.012;2023-04-01T22:26:53;0.70;;;0.70;;
8225;SDS011;4154;48.810;9.012;2023-04-01T22:29:35;1.37;;;0.70;;
8225;SDS011;4154;48.810;9.012;2023-04-01T22:32:48;0.70;;;0.70;;
8225;SDS011;4154;48.810;9.012;2023-04-01T22:43:46;1.10;;;0.70;;
8225;SDS011;4154;48.810;9.012;2023-04-01T22:46:20;0.60;;;0.60;;
8225;SDS011;4154;48.810;9.012;2023-04-01T22:49:45;1.33;;;0.70;;
8225;SDS011;4154;48.810;9.012;2023-04-01T22:52:30;0.50;;;0.50;;
8225;SDS011;4154;48.810;9.012;2023-04-01T22:55:04;0.67;;;0.67;;
8225;SDS011;4154;48.810;9.012;2023-04-01T22:57:49;1.30;;;0.70;;
8225;SDS011;4154;48.810;9.012;2023-04-01T23:06:00;0.70;;;0.50;;
8225;SDS011;4154;48.810;9.012;2023-04-01T23:11:17;0.87;;;0.50;;
8225;SDS011;4154;48.810;9.012;2023-04-01T23:14:30;0.50;;;0.50;;
8225;SDS011;4154;48.810;9.012;2023-04-01T23:20:15;0.93;;;0.70;;
8225;SDS011;4154;48.810;9.012;2023-04-01T23:28:43;0.50;;;0.50;;
8225;SDS011;4154;48.810;9.012;2023-04-01T23:31:33;0.50;;;0.50;;
8225;SDS011;4154;48.810;9.012;2023-04-01T23:36:37;0.50;;;0.50;;
8225;SDS011;4154;48.810;9.012;2023-04-01T23:39:20;0.93;;;0.53;;
8225;SDS011;4154;48.810;9.012;2023-04-01T23:41:47;0.63;;;0.60;;
8225;SDS011;4154;48.810;9.012;2023-04-01T23:44:16;0.83;;;0.70;;
8225;SDS011;4154;48.810;9.012;2023-04-01T23:46:42;0.47;;;0.47;;
8225;SDS011;4154;48.810;9.012;2023-04-01T23:49:17;0.83;;;0.60;;
8225;SDS011;4154;48.810;9.012;2023-04-01T23:51:53;0.70;;;0.53;;
8225;SDS011;4154;48.810;9.012;2023-04-01T23:54:49;0.87;;;0.60;;
8225;SDS011;4154;48.810;9.012;2023-04-01T23:57:26;0.60;;;0.60;;
